Gods Glory — WDJ7513 — position and weather

sailwx.info

Track history (hours):
 
Tides and Currents Weather Stations Pressure Air Temp Water Temp Dewpoint Dewpoint Depression Visibility Wind Speed Wind Dir Waves Ship Positions

Gods Glory

Owner: Quality tug services llc, carencro, LA. More information available from US FCC via Universal Licensing System and Coast Guard Vessel Documentation Center.

Last reported at 2017-Dec-15 09:38 UTC. Time now 2017-Dec-18 07:08 UTC.
Position N 29°37' W 090°21'.

Length 20 m; draft 3 m.

Type: Towing. MMSI: 368007450.

Date/timePositionNaut miles runAvg speedWind from/ knotsBaromVisibWave heightAir tempDewpointWater temp
2017-Dec-15 09:38N 29°37' W 090°21'2 4.3
2017-Dec-15 09:17N 29°36' W 090°22'1 3.7
2017-Dec-15 08:58N 29°35' W 090°23'7 3.1
2017-Dec-15 06:51N 29°34' W 090°30'2 4.4
2017-Dec-15 06:30N 29°34' W 090°32'2 4.4
2017-Dec-15 06:01N 29°34' W 090°34'2 4.1
2017-Dec-15 05:30N 29°35' W 090°37'2 4.5
2017-Dec-15 05:01N 29°36' W 090°39'2 3.4
2017-Dec-15 04:30N 29°36' W 090°41'2 3.1
2017-Dec-15 04:00N 29°36' W 090°43'5 3.4
2017-Dec-15 02:31N 29°32' W 090°46'1 0.8
2017-Dec-15 01:01N 29°32' W 090°48'0 0.1
2017-Dec-15 00:31N 29°32' W 090°48'8 0.2
2017-Dec-13 12:50N 29°34' W 090°57'6 7.2
2017-Dec-13 12:03N 29°32' W 090°51'0 7.3
2017-Dec-13 12:00N 29°32' W 090°50'3 5.2
2017-Dec-13 11:31N 29°32' W 090°47'0 0.0
2017-Dec-13 11:00N 29°32' W 090°47'1 1.1
2017-Dec-13 10:31N 29°32' W 090°47'3 5.3
2017-Dec-13 10:00N 29°34' W 090°44'3 5.3
2017-Dec-13 09:30N 29°36' W 090°43'2 4.3
2017-Dec-13 09:01N 29°36' W 090°40'3 6.8
2017-Dec-13 08:31N 29°35' W 090°37'4 7.1
2017-Dec-13 08:01N 29°34' W 090°33'2 0.1
2017-Dec-12 14:43N 29°34' W 090°30'1 2.7
2017-Dec-12 14:31N 29°34' W 090°31'1 2.7
2017-Dec-12 14:01N 29°34' W 090°32'1 2.6
2017-Dec-12 13:31N 29°34' W 090°34'1 2.5
2017-Dec-12 13:00N 29°34' W 090°35'1 2.7
2017-Dec-12 12:31N 29°35' W 090°36'1 2.5
2017-Dec-12 12:01N 29°35' W 090°38'1 2.7
2017-Dec-12 11:30N 29°36' W 090°39'1 2.7
2017-Dec-12 11:01N 29°36' W 090°41'1 2.7
2017-Dec-12 10:31N 29°37' W 090°42'1 2.6
2017-Dec-12 10:01N 29°36' W 090°43'1 2.8
2017-Dec-12 09:30N 29°34' W 090°43'1 2.6
2017-Dec-12 09:01N 29°34' W 090°44'1 2.7
2017-Dec-12 08:31N 29°33' W 090°45'1 2.5
2017-Dec-12 08:01N 29°32' W 090°47'1 2.7
2017-Dec-12 07:30N 29°32' W 090°48'1 2.7
2017-Dec-12 07:01N 29°32' W 090°50'2 2.7
2017-Dec-12 06:27N 29°32' W 090°51'1 2.7
2017-Dec-12 05:58N 29°32' W 090°53'1 2.7
2017-Dec-12 05:28N 29°33' W 090°54'1 2.7
2017-Dec-12 04:56N 29°34' W 090°56'2 2.7
2017-Dec-12 04:19N 29°35' W 090°57'1 2.8
2017-Dec-12 04:00N 29°35' W 090°58'51 1.1
2017-Dec-10 04:21N 29°51' W 091°54'1 2.9
2017-Dec-10 04:00N 29°51' W 091°55'2 3.1
2017-Dec-10 03:30N 29°50' W 091°57'2 3.4
2017-Dec-10 03:00N 29°50' W 091°59'2 3.1
2017-Dec-10 02:30N 29°50' W 092°01'2 3.3
2017-Dec-10 02:00N 29°49' W 092°02'2 3.5
2017-Dec-10 01:30N 29°48' W 092°04'2 3.4
2017-Dec-10 01:00N 29°48' W 092°06'2 3.4
2017-Dec-10 00:30N 29°47' W 092°08'2 4.0
2017-Dec-10 00:00N 29°47' W 092°10'2 4.1
2017-Dec-09 23:30N 29°47' W 092°13'1 2.6
2017-Dec-09 23:00N 29°48' W 092°14'2 3.4
2017-Dec-09 22:30N 29°48' W 092°16'2 3.6
2017-Dec-09 22:00N 29°49' W 092°17'2 3.5
2017-Dec-09 21:28N 29°50' W 092°19'2 3.6
2017-Dec-09 20:52N 29°51' W 092°22'26 3.1
2017-Dec-09 12:26N 29°58' W 092°51'1 3.0
2017-Dec-09 12:00N 29°57' W 092°52'1 2.9
2017-Dec-09 11:30N 29°57' W 092°54'2 2.9
2017-Dec-09 10:58N 29°56' W 092°55'2 3.0
2017-Dec-09 10:22N 29°56' W 092°57'6 2.9
2017-Dec-09 08:23N 29°56' W 093°04'1 3.0
2017-Dec-09 07:59N 29°56' W 093°05'1 3.0
2017-Dec-09 07:30N 29°56' W 093°07'2 3.1
2017-Dec-09 07:00N 29°56' W 093°09'1 2.7
2017-Dec-09 06:30N 29°57' W 093°10'1 2.6
2017-Dec-09 06:00N 29°58' W 093°11'2 3.2
2017-Dec-09 05:30N 29°59' W 093°12'2 3.2
2017-Dec-09 05:00N 30°00' W 093°13'2 3.3
2017-Dec-09 04:30N 30°02' W 093°14'2 3.1
2017-Dec-09 04:00N 30°02' W 093°16'2 3.1
2017-Dec-09 03:30N 30°04' W 093°16'2 3.2
2017-Dec-09 03:00N 30°05' W 093°17'1 1.8
2017-Dec-09 02:30N 30°06' W 093°18'0 0.0
2017-Dec-09 02:00N 30°06' W 093°18'1 1.1
2017-Dec-09 01:30N 30°06' W 093°19'1 2.3
2017-Dec-09 01:00N 30°06' W 093°20'2 3.3
2017-Dec-09 00:30N 30°08' W 093°20'2 3.1
2017-Dec-09 00:00N 30°10' W 093°19'2 3.4
2017-Dec-08 23:30N 30°11' W 093°18'2 3.5
2017-Dec-08 23:00N 30°12' W 093°17'1 2.8
2017-Dec-08 22:30N 30°13' W 093°16'1 0.1
2017-Dec-08 10:38N 30°14' W 093°15'0 0.0
2017-Dec-08 10:30N 30°14' W 093°15'0 0.0
2017-Dec-08 10:00N 30°14' W 093°15'0 0.0
2017-Dec-08 09:30N 30°14' W 093°15'0 0.0
2017-Dec-08 09:00N 30°14' W 093°15'0 0.0
2017-Dec-08 08:30N 30°14' W 093°15'0 0.0
2017-Dec-08 08:00N 30°14' W 093°15'0 0.0
2017-Dec-08 07:30N 30°14' W 093°15'0 0.0
2017-Dec-08 07:00N 30°14' W 093°15'0 0.0
2017-Dec-08 06:30N 30°14' W 093°15'0 0.0
2017-Dec-08 05:59N 30°14' W 093°15'0 0.0
2017-Dec-08 05:30N 30°14' W 093°15'0 0.0
2017-Dec-08 05:00N 30°14' W 093°15'0 0.0
2017-Dec-08 04:30N 30°14' W 093°15'2 4.1
2017-Dec-08 04:00N 30°12' W 093°17'4 7.6
2017-Dec-08 03:30N 30°09' W 093°20'4 7.6
2017-Dec-08 03:00N 30°06' W 093°19'1 2.3
2017-Dec-08 02:30N 30°06' W 093°18'0 0.3
2017-Dec-08 02:00N 30°06' W 093°18'4 7.1
2017-Dec-08 01:30N 30°04' W 093°16'48 7.1
2017-Dec-07 18:48N 29°52' W 092°22'3 7.2
2017-Dec-07 18:27N 29°51' W 092°20'3 7.2
2017-Dec-07 18:01N 29°49' W 092°17'4 7.8
2017-Dec-07 17:31N 29°47' W 092°13'4 6.0
2017-Dec-07 16:51N 29°47' W 092°08'3 8.0
2017-Dec-07 16:30N 29°48' W 092°05'4 7.4
2017-Dec-07 16:00N 29°49' W 092°01'4 7.6
2017-Dec-07 15:30N 29°50' W 091°57'  
Track history (hours):
 
Tides and Currents Weather Stations Pressure Air Temp Water Temp Dewpoint Dewpoint Depression Visibility Wind Speed Wind Dir Waves Ship Positions

Gods Glory

Owner: Quality tug services llc, carencro, LA. More information available from US FCC via Universal Licensing System and Coast Guard Vessel Documentation Center.

Last reported at 2017-Dec-15 09:38 UTC. Time now 2017-Dec-18 07:08 UTC.
Position N 29°37' W 090°21'.

Length 20 m; draft 3 m.

Type: Towing. MMSI: 368007450.

Date/timePositionNaut miles runAvg speedWind from/ knotsBaromVisibWave heightAir tempDewpointWater temp
2017-Dec-15 09:38N 29°37' W 090°21'2 4.3
2017-Dec-15 09:17N 29°36' W 090°22'1 3.7
2017-Dec-15 08:58N 29°35' W 090°23'7 3.1
2017-Dec-15 06:51N 29°34' W 090°30'2 4.4
2017-Dec-15 06:30N 29°34' W 090°32'2 4.4
2017-Dec-15 06:01N 29°34' W 090°34'2 4.1
2017-Dec-15 05:30N 29°35' W 090°37'2 4.5
2017-Dec-15 05:01N 29°36' W 090°39'2 3.4
2017-Dec-15 04:30N 29°36' W 090°41'2 3.1
2017-Dec-15 04:00N 29°36' W 090°43'5 3.4
2017-Dec-15 02:31N 29°32' W 090°46'1 0.8
2017-Dec-15 01:01N 29°32' W 090°48'0 0.1
2017-Dec-15 00:31N 29°32' W 090°48'8 0.2
2017-Dec-13 12:50N 29°34' W 090°57'6 7.2
2017-Dec-13 12:03N 29°32' W 090°51'0 7.3
2017-Dec-13 12:00N 29°32' W 090°50'3 5.2
2017-Dec-13 11:31N 29°32' W 090°47'0 0.0
2017-Dec-13 11:00N 29°32' W 090°47'1 1.1
2017-Dec-13 10:31N 29°32' W 090°47'3 5.3
2017-Dec-13 10:00N 29°34' W 090°44'3 5.3
2017-Dec-13 09:30N 29°36' W 090°43'2 4.3
2017-Dec-13 09:01N 29°36' W 090°40'3 6.8
2017-Dec-13 08:31N 29°35' W 090°37'4 7.1
2017-Dec-13 08:01N 29°34' W 090°33'2 0.1
2017-Dec-12 14:43N 29°34' W 090°30'1 2.7
2017-Dec-12 14:31N 29°34' W 090°31'1 2.7
2017-Dec-12 14:01N 29°34' W 090°32'1 2.6
2017-Dec-12 13:31N 29°34' W 090°34'1 2.5
2017-Dec-12 13:00N 29°34' W 090°35'1 2.7
2017-Dec-12 12:31N 29°35' W 090°36'1 2.5
2017-Dec-12 12:01N 29°35' W 090°38'1 2.7
2017-Dec-12 11:30N 29°36' W 090°39'1 2.7
2017-Dec-12 11:01N 29°36' W 090°41'1 2.7
2017-Dec-12 10:31N 29°37' W 090°42'1 2.6
2017-Dec-12 10:01N 29°36' W 090°43'1 2.8
2017-Dec-12 09:30N 29°34' W 090°43'1 2.6
2017-Dec-12 09:01N 29°34' W 090°44'1 2.7
2017-Dec-12 08:31N 29°33' W 090°45'1 2.5
2017-Dec-12 08:01N 29°32' W 090°47'1 2.7
2017-Dec-12 07:30N 29°32' W 090°48'1 2.7
2017-Dec-12 07:01N 29°32' W 090°50'2 2.7
2017-Dec-12 06:27N 29°32' W 090°51'1 2.7
2017-Dec-12 05:58N 29°32' W 090°53'1 2.7
2017-Dec-12 05:28N 29°33' W 090°54'1 2.7
2017-Dec-12 04:56N 29°34' W 090°56'2 2.7
2017-Dec-12 04:19N 29°35' W 090°57'1 2.8
2017-Dec-12 04:00N 29°35' W 090°58'51 1.1
2017-Dec-10 04:21N 29°51' W 091°54'1 2.9
2017-Dec-10 04:00N 29°51' W 091°55'2 3.1
2017-Dec-10 03:30N 29°50' W 091°57'2 3.4
2017-Dec-10 03:00N 29°50' W 091°59'2 3.1
2017-Dec-10 02:30N 29°50' W 092°01'2 3.3
2017-Dec-10 02:00N 29°49' W 092°02'2 3.5
2017-Dec-10 01:30N 29°48' W 092°04'2 3.4
2017-Dec-10 01:00N 29°48' W 092°06'2 3.4
2017-Dec-10 00:30N 29°47' W 092°08'2 4.0
2017-Dec-10 00:00N 29°47' W 092°10'2 4.1
2017-Dec-09 23:30N 29°47' W 092°13'1 2.6
2017-Dec-09 23:00N 29°48' W 092°14'2 3.4
2017-Dec-09 22:30N 29°48' W 092°16'2 3.6
2017-Dec-09 22:00N 29°49' W 092°17'2 3.5
2017-Dec-09 21:28N 29°50' W 092°19'2 3.6
2017-Dec-09 20:52N 29°51' W 092°22'26 3.1
2017-Dec-09 12:26N 29°58' W 092°51'1 3.0
2017-Dec-09 12:00N 29°57' W 092°52'1 2.9
2017-Dec-09 11:30N 29°57' W 092°54'2 2.9
2017-Dec-09 10:58N 29°56' W 092°55'2 3.0
2017-Dec-09 10:22N 29°56' W 092°57'6 2.9
2017-Dec-09 08:23N 29°56' W 093°04'1 3.0
2017-Dec-09 07:59N 29°56' W 093°05'1 3.0
2017-Dec-09 07:30N 29°56' W 093°07'2 3.1
2017-Dec-09 07:00N 29°56' W 093°09'1 2.7
2017-Dec-09 06:30N 29°57' W 093°10'1 2.6
2017-Dec-09 06:00N 29°58' W 093°11'2 3.2
2017-Dec-09 05:30N 29°59' W 093°12'2 3.2
2017-Dec-09 05:00N 30°00' W 093°13'2 3.3
2017-Dec-09 04:30N 30°02' W 093°14'2 3.1
2017-Dec-09 04:00N 30°02' W 093°16'2 3.1
2017-Dec-09 03:30N 30°04' W 093°16'2 3.2
2017-Dec-09 03:00N 30°05' W 093°17'1 1.8
2017-Dec-09 02:30N 30°06' W 093°18'0 0.0
2017-Dec-09 02:00N 30°06' W 093°18'1 1.1
2017-Dec-09 01:30N 30°06' W 093°19'1 2.3
2017-Dec-09 01:00N 30°06' W 093°20'2 3.3
2017-Dec-09 00:30N 30°08' W 093°20'2 3.1
2017-Dec-09 00:00N 30°10' W 093°19'2 3.4
2017-Dec-08 23:30N 30°11' W 093°18'2 3.5
2017-Dec-08 23:00N 30°12' W 093°17'1 2.8
2017-Dec-08 22:30N 30°13' W 093°16'1 0.1
2017-Dec-08 10:38N 30°14' W 093°15'0 0.0
2017-Dec-08 10:30N 30°14' W 093°15'0 0.0
2017-Dec-08 10:00N 30°14' W 093°15'0 0.0
2017-Dec-08 09:30N 30°14' W 093°15'0 0.0
2017-Dec-08 09:00N 30°14' W 093°15'0 0.0
2017-Dec-08 08:30N 30°14' W 093°15'0 0.0
2017-Dec-08 08:00N 30°14' W 093°15'0 0.0
2017-Dec-08 07:30N 30°14' W 093°15'0 0.0
2017-Dec-08 07:00N 30°14' W 093°15'0 0.0
2017-Dec-08 06:30N 30°14' W 093°15'0 0.0
2017-Dec-08 05:59N 30°14' W 093°15'0 0.0
2017-Dec-08 05:30N 30°14' W 093°15'0 0.0
2017-Dec-08 05:00N 30°14' W 093°15'0 0.0
2017-Dec-08 04:30N 30°14' W 093°15'2 4.1
2017-Dec-08 04:00N 30°12' W 093°17'4 7.6
2017-Dec-08 03:30N 30°09' W 093°20'4 7.6
2017-Dec-08 03:00N 30°06' W 093°19'1 2.3
2017-Dec-08 02:30N 30°06' W 093°18'0 0.3
2017-Dec-08 02:00N 30°06' W 093°18'4 7.1
2017-Dec-08 01:30N 30°04' W 093°16'48 7.1
2017-Dec-07 18:48N 29°52' W 092°22'3 7.2
2017-Dec-07 18:27N 29°51' W 092°20'3 7.2
2017-Dec-07 18:01N 29°49' W 092°17'4 7.8
2017-Dec-07 17:31N 29°47' W 092°13'4 6.0
2017-Dec-07 16:51N 29°47' W 092°08'3 8.0
2017-Dec-07 16:30N 29°48' W 092°05'4 7.4
2017-Dec-07 16:00N 29°49' W 092°01'4 7.6
2017-Dec-07 15:30N 29°50' W 091°57'  

Dump ship's entire track history